Time;durP1;ratioP1;P1;durP2;ratioP2;P2;SDS_P1;SDS_P2;PMS_P1;PMS_P2;Temp;Humidity;BMP_temperature;BMP_pressure;BME280_temperature;BME280_humidity;BME280_pressure;Samples;Min_cycle;Max_cycle;Signal;HPM_P1;HPM_P2
2023/01/26 00:01:12;;;;;;;33.27;15.80;;;-0.80;99.90;;;;;;4994035;28;20247;-71
2023/01/26 00:03:39;;;;;;;34.10;16.50;;;-0.80;99.90;;;;;;4994110;28;20237;-71
2023/01/26 00:06:07;;;;;;;29.10;14.80;;;-0.80;99.90;;;;;;4994023;28;20248;-71
2023/01/26 00:08:38;;;;;;;35.17;17.53;;;-0.80;99.90;;;;;;4994472;28;20244;-70
2023/01/26 00:11:06;;;;;;;34.10;15.93;;;-0.80;99.90;;;;;;4992952;28;20321;-70
2023/01/26 00:13:33;;;;;;;32.10;15.23;;;-0.80;99.90;;;;;;4986891;28;20240;-70
2023/01/26 00:16:00;;;;;;;33.77;15.87;;;-0.90;99.90;;;;;;4993470;28;20201;-72
2023/01/26 00:18:28;;;;;;;33.47;17.07;;;-0.80;99.90;;;;;;4993975;28;20304;-72
2023/01/26 00:20:58;;;;;;;33.43;15.67;;;-0.80;99.90;;;;;;4994659;28;20650;-72
2023/01/26 00:23:25;;;;;;;35.13;16.23;;;-0.90;99.90;;;;;;4993156;28;20628;-72
2023/01/26 00:25:54;;;;;;;30.93;15.90;;;-0.90;99.90;;;;;;4993387;28;20299;-72
2023/01/26 00:28:21;;;;;;;33.40;15.63;;;-0.80;99.90;;;;;;4993470;28;20236;-72
2023/01/26 00:30:48;;;;;;;36.77;18.07;;;-0.80;99.90;;;;;;4993394;28;20636;-72
2023/01/26 00:33:15;;;;;;;37.73;17.20;;;-0.90;99.90;;;;;;4991849;28;20288;-72
2023/01/26 00:35:43;;;;;;;35.70;17.37;;;-0.90;99.90;;;;;;4993249;28;20663;-72
2023/01/26 00:38:11;;;;;;;35.83;16.13;;;-0.80;99.90;;;;;;4992574;28;20227;-72
2023/01/26 00:40:38;;;;;;;35.87;16.87;;;-0.90;99.90;;;;;;4994175;28;20203;-72
2023/01/26 00:43:06;;;;;;;35.70;17.37;;;-0.90;99.90;;;;;;4992692;28;20663;-72
2023/01/26 00:45:35;;;;;;;35.40;17.03;;;-0.90;99.90;;;;;;4986441;28;20233;-72
2023/01/26 00:48:02;;;;;;;39.40;17.33;;;-0.90;99.90;;;;;;4992882;28;20292;-72
2023/01/26 00:50:29;;;;;;;39.73;19.03;;;-0.90;99.90;;;;;;4992994;28;20933;-74
2023/01/26 00:52:56;;;;;;;39.40;17.40;;;-1.00;99.90;;;;;;4993602;28;20190;-69
2023/01/26 00:55:23;;;;;;;40.00;18.00;;;-0.90;99.90;;;;;;4992884;28;20247;-69
2023/01/26 00:57:50;;;;;;;36.17;17.57;;;-0.90;99.90;;;;;;4994091;28;20630;-69
2023/01/26 01:00:19;;;;;;;41.00;19.73;;;-0.90;99.90;;;;;;4992931;28;20240;-69
2023/01/26 01:02:45;;;;;;;48.57;21.43;;;-0.90;99.90;;;;;;4992649;28;20212;-69
2023/01/26 01:05:12;;;;;;;43.33;20.00;;;-1.00;99.90;;;;;;4993418;28;20251;-69
2023/01/26 01:07:39;;;;;;;42.97;19.00;;;-0.90;99.90;;;;;;4993037;28;20241;-69
2023/01/26 01:10:07;;;;;;;39.43;17.50;;;-0.80;99.90;;;;;;4992389;28;20602;-69
2023/01/26 01:12:34;;;;;;;43.23;19.73;;;-0.90;99.90;;;;;;4992649;28;20212;-69
2023/01/26 01:15:01;;;;;;;42.00;19.80;;;-0.90;99.90;;;;;;4992445;28;20236;-69
2023/01/26 01:17:30;;;;;;;46.03;20.07;;;-0.80;99.90;;;;;;4991254;28;20232;-69
2023/01/26 01:19:57;;;;;;;45.70;19.10;;;-0.80;99.90;;;;;;4993188;28;20279;-70
2023/01/26 01:22:24;;;;;;;49.70;21.73;;;-0.80;99.90;;;;;;4992698;28;20243;-69
2023/01/26 01:24:51;;;;;;;50.60;20.80;;;-0.90;99.90;;;;;;4991916;28;20637;-71
2023/01/26 01:27:18;;;;;;;51.37;22.67;;;-0.90;99.90;;;;;;4992291;28;20668;-71
2023/01/26 01:29:45;;;;;;;56.30;22.43;;;-0.80;99.90;;;;;;4991447;28;20303;-70
2023/01/26 01:32:12;;;;;;;51.33;22.63;;;-0.80;99.90;;;;;;4991346;28;20229;-70
2023/01/26 01:34:40;;;;;;;49.00;21.10;;;-0.80;99.90;;;;;;4991965;28;20237;-70
2023/01/26 01:37:07;;;;;;;52.70;22.43;;;-0.80;99.90;;;;;;4991678;28;20197;-70
2023/01/26 01:39:34;;;;;;;55.17;23.03;;;-0.80;99.90;;;;;;4991545;28;20312;-73
2023/01/26 01:42:01;;;;;;;53.03;23.27;;;-0.70;99.90;;;;;;4992580;28;20236;-72
2023/01/26 01:44:28;;;;;;;61.60;22.90;;;-0.70;99.90;;;;;;4991664;28;20237;-72
2023/01/26 01:46:57;;;;;;;59.87;24.23;;;-0.90;99.90;;;;;;4992880;28;20284;-72
2023/01/26 01:49:30;;;;;;;60.70;24.87;;;-0.80;99.90;;;;;;4991488;28;20263;-71
2023/01/26 01:52:04;;;;;;;60.23;23.90;;;-0.80;99.90;;;;;;4991713;28;20240;-72
2023/01/26 01:54:34;;;;;;;59.37;24.33;;;-0.80;99.90;;;;;;4991460;28;20213;-71
2023/01/26 01:57:05;;;;;;;65.53;24.40;;;-0.90;99.90;;;;;;4991581;28;20625;-71
2023/01/26 01:59:33;;;;;;;62.33;25.03;;;-0.90;99.90;;;;;;4991685;28;20316;-74
2023/01/26 02:02:00;;;;;;;64.33;26.13;;;-0.90;99.90;;;;;;4991170;28;20285;-74
2023/01/26 02:04:27;;;;;;;61.93;26.23;;;-0.80;99.90;;;;;;4992648;28;20304;-70
2023/01/26 02:06:57;;;;;;;61.87;23.90;;;-0.80;99.90;;;;;;4992295;28;20240;-70
2023/01/26 02:12:20;;;;;;;66.23;25.87;;;-0.70;99.90;;;;;;4992455;28;20232;-70
2023/01/26 02:14:48;;;;;;;56.03;23.77;;;-0.70;99.90;;;;;;4992648;28;20292;-70
2023/01/26 02:17:15;;;;;;;64.27;25.77;;;-0.80;99.90;;;;;;4991511;28;20288;-71
2023/01/26 02:19:51;;;;;;;63.73;25.57;;;-0.80;99.90;;;;;;4992202;28;20271;-70
2023/01/26 02:22:30;;;;;;;68.37;25.63;;;-0.70;99.90;;;;;;4987426;28;20251;-70
2023/01/26 02:25:07;;;;;;;72.83;28.90;;;-0.80;99.90;;;;;;4991808;28;20299;-70
2023/01/26 02:27:35;;;;;;;72.60;29.93;;;-0.80;99.90;;;;;;4991643;28;20659;-70
2023/01/26 02:30:04;;;;;;;77.13;28.77;;;-0.90;99.90;;;;;;4991944;28;20275;-70
2023/01/26 02:32:31;;;;;;;64.63;26.23;;;-0.90;99.90;;;;;;4991516;28;20209;-70
2023/01/26 02:34:58;;;;;;;70.83;27.37;;;-0.80;99.90;;;;;;4991743;28;20686;-70
2023/01/26 02:37:25;;;;;;;66.17;26.07;;;-0.90;99.90;;;;;;4990158;28;20238;-70
2023/01/26 02:39:58;;;;;;;68.90;28.23;;;-0.80;99.90;;;;;;4990634;28;20216;-70
2023/01/26 02:42:40;;;;;;;73.40;28.93;;;-0.80;99.90;;;;;;4990225;28;20722;-70
2023/01/26 02:45:12;;;;;;;71.20;26.50;;;-0.80;99.90;;;;;;4992011;28;20204;-70
2023/01/26 02:47:40;;;;;;;67.30;25.23;;;-0.80;99.90;;;;;;4984562;28;20232;-70
2023/01/26 02:50:06;;;;;;;63.50;25.60;;;-0.70;99.90;;;;;;4992113;28;20197;-70
2023/01/26 02:52:34;;;;;;;64.17;26.20;;;-0.80;99.90;;;;;;4990542;28;20553;-71
2023/01/26 02:57:46;;;;;;;59.43;23.10;;;-0.80;99.90;;;;;;4995638;28;20203;-71
2023/01/26 03:00:16;;;;;;;66.27;24.83;;;-0.80;99.90;;;;;;4983177;28;20359;-71
2023/01/26 03:02:45;;;;;;;64.90;24.57;;;-0.80;99.90;;;;;;4982496;28;20307;-71
2023/01/26 03:05:13;;;;;;;60.60;24.63;;;-0.80;99.90;;;;;;4995622;28;20233;-71
2023/01/26 03:07:39;;;;;;;58.90;23.33;;;-0.70;99.90;;;;;;4993906;28;20197;-71
2023/01/26 03:10:08;;;;;;;59.20;22.77;;;-0.70;99.90;;;;;;4995121;28;20243;-71
2023/01/26 03:12:35;;;;;;;56.73;21.73;;;-0.70;99.90;;;;;;4995390;28;20243;-71
2023/01/26 03:17:48;;;;;;;54.57;21.33;;;-0.60;99.90;;;;;;4994501;28;20199;-71
2023/01/26 03:28:34;;;;;;;56.13;20.20;;;-0.70;99.90;;;;;;4994418;28;20200;-71
2023/01/26 03:31:01;;;;;;;56.37;22.30;;;-0.70;99.90;;;;;;4994713;28;20244;-71
2023/01/26 03:33:29;;;;;;;58.90;22.50;;;-0.80;99.90;;;;;;4993908;28;20247;-71
2023/01/26 03:35:56;;;;;;;54.67;21.27;;;-0.90;99.90;;;;;;4994681;28;20289;-71
2023/01/26 03:38:23;;;;;;;53.63;21.87;;;-0.80;99.90;;;;;;4994536;28;20247;-71
2023/01/26 03:57:16;;;;;;;65.73;24.37;;;-0.70;99.90;;;;;;4994843;28;20243;-71
2023/01/26 03:59:43;;;;;;;60.97;24.57;;;-0.60;99.90;;;;;;4993877;28;20255;-71
2023/01/26 04:10:27;;;;;;;62.27;25.00;;;-0.70;99.90;;;;;;4994764;28;20571;-70
2023/01/26 04:21:27;;;;;;;64.93;24.60;;;-0.60;99.90;;;;;;4988847;28;20710;-70
2023/01/26 04:23:56;;;;;;;64.07;23.50;;;-0.70;99.90;;;;;;4975399;28;20652;-70
2023/01/26 04:26:23;;;;;;;67.83;26.80;;;-0.70;99.90;;;;;;4993658;28;20197;-70
2023/01/26 04:28:51;;;;;;;73.97;29.03;;;-0.70;99.90;;;;;;4993333;28;20209;-70
2023/01/26 04:31:17;;;;;;;65.57;25.77;;;-0.60;99.90;;;;;;4993873;28;20287;-70
2023/01/26 04:33:44;;;;;;;68.70;27.07;;;-0.70;99.90;;;;;;4992830;28;20691;-70
2023/01/26 04:36:13;;;;;;;70.27;23.70;;;-0.60;99.90;;;;;;4992789;28;20211;-70
2023/01/26 04:38:40;;;;;;;61.87;25.33;;;-0.60;99.90;;;;;;4994547;28;20647;-70
2023/01/26 04:41:07;;;;;;;64.03;25.77;;;-0.60;99.90;;;;;;4992726;28;20217;-70
2023/01/26 04:43:34;;;;;;;57.70;23.63;;;-0.70;99.90;;;;;;4993548;28;20236;-70
2023/01/26 04:46:02;;;;;;;59.57;21.70;;;-0.70;99.90;;;;;;4993896;28;20252;-70
2023/01/26 04:48:30;;;;;;;52.90;21.10;;;-0.70;99.90;;;;;;4994133;28;20288;-70
2023/01/26 04:50:58;;;;;;;55.17;21.13;;;-0.70;99.90;;;;;;4994120;28;20237;-71
2023/01/26 04:53:27;;;;;;;56.10;21.13;;;-0.70;99.90;;;;;;4993399;28;20241;-71
2023/01/26 04:55:54;;;;;;;62.27;22.20;;;-0.70;99.90;;;;;;4992820;28;20216;-71
2023/01/26 04:58:21;;;;;;;58.83;22.27;;;-0.60;99.90;;;;;;4993964;28;20205;-71
2023/01/26 05:00:51;;;;;;;58.00;22.80;;;-0.70;99.90;;;;;;4992842;28;20271;-71
2023/01/26 05:03:18;;;;;;;61.60;23.07;;;-0.80;99.90;;;;;;4992541;28;20205;-71
2023/01/26 05:05:48;;;;;;;57.67;22.87;;;-0.80;99.90;;;;;;4993714;28;20197;-72
2023/01/26 05:08:16;;;;;;;61.37;22.70;;;-0.80;99.90;;;;;;4992587;28;20305;-72
2023/01/26 05:10:45;;;;;;;61.07;23.37;;;-0.70;99.90;;;;;;4992427;28;20291;-72
2023/01/26 05:13:12;;;;;;;59.47;22.13;;;-0.80;99.90;;;;;;4993263;28;20300;-72
2023/01/26 05:15:40;;;;;;;60.37;22.67;;;-0.80;99.90;;;;;;4993533;28;20239;-72
2023/01/26 05:18:08;;;;;;;59.70;19.70;;;-0.80;99.90;;;;;;4992761;28;20237;-72
2023/01/26 05:20:35;;;;;;;56.93;21.80;;;-0.80;99.90;;;;;;4992988;28;20265;-73
2023/01/26 05:23:02;;;;;;;59.33;22.67;;;-0.80;99.90;;;;;;4991921;28;20205;-72
2023/01/26 05:25:29;;;;;;;57.17;22.73;;;-0.90;99.90;;;;;;4993541;28;20236;-72
2023/01/26 05:27:57;;;;;;;56.33;21.73;;;-0.80;99.90;;;;;;4993247;28;20243;-72
2023/01/26 05:30:24;;;;;;;63.80;22.87;;;-0.80;99.90;;;;;;4992513;28;20296;-72
2023/01/26 05:32:51;;;;;;;58.30;21.87;;;-0.80;99.90;;;;;;4991248;28;20255;-72
2023/01/26 05:35:18;;;;;;;62.07;23.10;;;-0.80;99.90;;;;;;4992859;28;20632;-71
2023/01/26 05:37:45;;;;;;;63.67;23.27;;;-0.80;99.90;;;;;;4992243;28;20292;-72
2023/01/26 05:40:13;;;;;;;53.23;21.40;;;-0.80;99.90;;;;;;4992265;28;20229;-72
2023/01/26 05:42:42;;;;;;;62.83;21.77;;;-0.80;99.90;;;;;;4992824;28;20573;-71
2023/01/26 05:45:10;;;;;;;62.90;22.67;;;-0.80;99.90;;;;;;4992384;28;20296;-71
2023/01/26 05:47:37;;;;;;;65.03;22.97;;;-0.80;99.90;;;;;;4992924;28;20721;-71
2023/01/26 05:50:05;;;;;;;64.13;23.57;;;-0.90;99.90;;;;;;4991680;28;20247;-71
2023/01/26 05:52:33;;;;;;;62.33;23.90;;;-0.90;99.90;;;;;;4992362;28;20244;-71
2023/01/26 05:55:00;;;;;;;63.77;23.73;;;-0.80;99.90;;;;;;4991792;28;20216;-71
2023/01/26 05:57:26;;;;;;;68.70;21.57;;;-0.80;99.90;;;;;;4992269;28;20243;-71
2023/01/26 05:59:53;;;;;;;70.23;24.43;;;-0.80;99.90;;;;;;4991567;28;20321;-71
2023/01/26 06:02:22;;;;;;;72.97;25.60;;;-0.80;99.90;;;;;;4991789;28;20628;-71
2023/01/26 06:04:55;;;;;;;73.47;27.27;;;-0.80;99.90;;;;;;4992868;28;20252;-71
2023/01/26 06:07:21;;;;;;;67.73;25.70;;;-0.80;99.90;;;;;;4991812;28;20532;-71
2023/01/26 06:09:48;;;;;;;63.53;20.90;;;-0.80;99.90;;;;;;4984530;28;20236;-71
2023/01/26 06:12:17;;;;;;;68.37;23.10;;;-0.80;99.90;;;;;;4991733;28;20233;-71
2023/01/26 06:14:44;;;;;;;75.20;27.87;;;-0.80;99.90;;;;;;4992275;28;20220;-71
2023/01/26 06:17:11;;;;;;;78.50;29.90;;;-0.80;99.90;;;;;;4992137;28;20215;-71
2023/01/26 06:19:40;;;;;;;72.40;26.80;;;-0.70;99.90;;;;;;4992317;28;20257;-71
2023/01/26 06:22:08;;;;;;;75.50;27.57;;;-0.70;99.90;;;;;;4991208;28;20688;-71
2023/01/26 06:24:35;;;;;;;68.03;21.23;;;-0.70;99.90;;;;;;4994314;28;20205;-71
2023/01/26 06:27:05;;;;;;;74.90;26.07;;;-0.70;99.90;;;;;;4992024;28;20233;-71
2023/01/26 06:29:32;;;;;;;74.83;24.77;;;-0.70;99.90;;;;;;4992052;28;20296;-71
2023/01/26 06:31:59;;;;;;;75.57;26.97;;;-0.70;99.90;;;;;;4991044;28;20229;-71
2023/01/26 06:34:26;;;;;;;67.27;25.27;;;-0.70;99.90;;;;;;4992054;28;20236;-70
2023/01/26 06:36:55;;;;;;;76.40;25.73;;;-0.70;99.90;;;;;;4990794;28;20197;-70
2023/01/26 06:39:22;;;;;;;69.63;26.40;;;-0.60;99.90;;;;;;4990873;28;20219;-70
2023/01/26 06:41:49;;;;;;;65.50;26.33;;;-0.60;99.90;;;;;;4991683;28;20247;-72
2023/01/26 06:44:16;;;;;;;68.83;26.83;;;-0.60;99.90;;;;;;4991174;28;20205;-72
2023/01/26 06:46:43;;;;;;;68.77;22.83;;;-0.70;99.90;;;;;;4992305;28;20244;-72
2023/01/26 06:49:10;;;;;;;69.73;27.30;;;-0.70;99.90;;;;;;4991173;28;20244;-72
2023/01/26 06:51:55;;;;;;;66.70;24.70;;;-0.70;99.90;;;;;;4992112;28;20236;-72
2023/01/26 06:54:22;;;;;;;73.83;29.17;;;-0.70;99.90;;;;;;4991902;28;20209;-72
2023/01/26 06:56:49;;;;;;;69.43;23.43;;;-0.60;99.90;;;;;;4991977;28;20221;-72
2023/01/26 06:59:17;;;;;;;73.43;29.50;;;-0.60;99.90;;;;;;4990947;28;20870;-72
2023/01/26 07:01:47;;;;;;;75.80;28.60;;;-0.60;99.90;;;;;;4991566;28;20315;-72
2023/01/26 07:04:14;;;;;;;69.07;26.53;;;-0.70;99.90;;;;;;4992028;28;20581;-72
2023/01/26 07:06:42;;;;;;;78.30;25.53;;;-0.70;99.90;;;;;;4990878;28;20671;-72
2023/01/26 07:09:11;;;;;;;72.93;24.67;;;-0.60;99.90;;;;;;4991306;28;20263;-70
2023/01/26 07:11:38;;;;;;;72.27;27.33;;;-0.70;99.90;;;;;;4991416;28;20213;-70
2023/01/26 07:14:05;;;;;;;68.77;24.13;;;-0.70;99.90;;;;;;4991993;28;20244;-70
2023/01/26 07:16:32;;;;;;;70.70;26.67;;;-0.80;99.90;;;;;;4991251;28;20714;-70
2023/01/26 07:18:59;;;;;;;71.23;28.00;;;-0.80;99.90;;;;;;4992266;28;20251;-69
2023/01/26 07:21:26;;;;;;;69.23;26.37;;;-0.70;99.90;;;;;;4991991;28;20268;-72
2023/01/26 07:23:53;;;;;;;66.77;25.70;;;-0.70;99.90;;;;;;4990651;28;20221;-70
2023/01/26 07:26:21;;;;;;;68.00;27.80;;;-0.80;99.90;;;;;;4991639;28;20248;-70
2023/01/26 07:28:48;;;;;;;62.80;26.50;;;-0.70;99.90;;;;;;4991381;28;20243;-69
2023/01/26 07:31:15;;;;;;;66.87;27.47;;;-0.70;99.90;;;;;;4990909;28;20292;-70
2023/01/26 07:33:42;;;;;;;62.23;25.70;;;-0.70;99.90;;;;;;4991468;28;20245;-69
2023/01/26 07:36:10;;;;;;;67.67;27.13;;;-0.70;99.90;;;;;;4991538;28;20241;-69
2023/01/26 07:38:38;;;;;;;70.17;26.87;;;-0.70;99.90;;;;;;4990925;28;20208;-70
2023/01/26 07:41:07;;;;;;;70.57;27.17;;;-0.60;99.90;;;;;;4990741;28;20315;-69
2023/01/26 07:43:36;;;;;;;65.80;25.47;;;-0.70;99.90;;;;;;4994273;28;20244;-70
2023/01/26 07:46:04;;;;;;;62.23;21.10;;;-0.70;99.90;;;;;;4995276;28;20240;-70
2023/01/26 07:48:33;;;;;;;62.17;24.03;;;-0.70;99.90;;;;;;4995531;28;20647;-69
2023/01/26 07:51:00;;;;;;;62.37;21.60;;;-0.70;99.90;;;;;;4995234;28;20672;-70
2023/01/26 07:53:29;;;;;;;67.20;20.53;;;-0.60;99.90;;;;;;4994691;28;20247;-70
2023/01/26 07:56:09;;;;;;;64.27;24.60;;;-0.60;99.90;;;;;;4994295;28;20225;-70
2023/01/26 07:58:37;;;;;;;60.47;24.07;;;-0.60;99.90;;;;;;4994898;28;20627;-70
2023/01/26 08:01:09;;;;;;;62.17;25.47;;;-0.70;99.90;;;;;;4994446;28;20312;-70
2023/01/26 08:03:36;;;;;;;66.73;22.40;;;-0.60;99.90;;;;;;4994799;28;20209;-69
2023/01/26 08:06:03;;;;;;;59.17;23.23;;;-0.60;99.90;;;;;;4994777;28;20236;-71
2023/01/26 08:08:30;;;;;;;61.13;21.20;;;-0.60;99.90;;;;;;4994703;28;20236;-70
2023/01/26 08:10:59;;;;;;;61.63;24.63;;;-0.60;99.90;;;;;;4994079;28;20237;-71
2023/01/26 08:13:26;;;;;;;59.70;24.53;;;-0.50;99.90;;;;;;4993596;28;20209;-71
2023/01/26 08:15:54;;;;;;;56.93;20.97;;;-0.40;99.90;;;;;;4993381;28;20564;-71
2023/01/26 08:18:21;;;;;;;57.07;21.40;;;-0.40;99.90;;;;;;4994755;28;20201;-71
2023/01/26 08:20:52;;;;;;;59.33;24.33;;;-0.40;99.90;;;;;;4994674;28;20279;-71
2023/01/26 08:23:19;;;;;;;58.90;20.03;;;-0.40;99.90;;;;;;4992820;28;20654;-71
2023/01/26 08:25:46;;;;;;;53.70;20.13;;;-0.50;99.90;;;;;;4994129;28;20292;-71
2023/01/26 08:28:13;;;;;;;63.47;23.93;;;-0.30;99.90;;;;;;4994414;28;20231;-71
2023/01/26 08:30:41;;;;;;;60.73;24.20;;;-0.30;99.90;;;;;;4993424;28;20216;-71
2023/01/26 08:33:10;;;;;;;57.90;23.67;;;-0.30;99.90;;;;;;4993446;28;20675;-71
2023/01/26 08:35:36;;;;;;;53.20;24.27;;;-0.40;99.90;;;;;;4994677;28;20284;-71
2023/01/26 08:38:04;;;;;;;55.13;22.63;;;-0.30;99.90;;;;;;4994250;28;20209;-71
2023/01/26 08:40:31;;;;;;;53.20;23.47;;;-0.30;99.90;;;;;;4994061;28;20229;-71
2023/01/26 08:43:01;;;;;;;60.77;20.17;;;-0.20;99.90;;;;;;4993938;28;20699;-71
2023/01/26 08:45:31;;;;;;;55.27;21.73;;;-0.10;99.90;;;;;;4993296;28;20209;-72
2023/01/26 08:47:58;;;;;;;53.43;22.13;;;-0.10;99.90;;;;;;4993928;28;20201;-72
2023/01/26 08:50:27;;;;;;;49.20;18.83;;;0.00;99.90;;;;;;4993929;28;20240;-72
2023/01/26 08:52:56;;;;;;;52.27;18.77;;;-0.10;99.90;;;;;;4993628;28;20243;-72
2023/01/26 08:55:23;;;;;;;53.30;23.50;;;0.00;99.90;;;;;;4993191;28;20216;-72
2023/01/26 08:57:54;;;;;;;50.40;18.30;;;0.00;99.90;;;;;;4993916;28;20197;-72
2023/01/26 09:00:24;;;;;;;55.03;20.57;;;0.10;99.90;;;;;;4992909;28;20224;-72
2023/01/26 09:02:51;;;;;;;51.40;20.60;;;0.10;99.90;;;;;;4993549;28;20614;-72
2023/01/26 09:05:18;;;;;;;50.53;19.57;;;0.10;99.90;;;;;;4993287;28;20236;-72
2023/01/26 09:07:46;;;;;;;51.20;18.70;;;0.10;99.90;;;;;;4993759;28;20201;-72
2023/01/26 09:10:13;;;;;;;51.17;22.63;;;0.20;99.90;;;;;;4993052;28;20248;-72
2023/01/26 09:12:40;;;;;;;49.03;18.77;;;0.20;99.90;;;;;;4992986;28;20629;-72
2023/01/26 09:15:08;;;;;;;47.67;18.83;;;0.20;99.90;;;;;;4992475;28;20280;-72
2023/01/26 09:17:36;;;;;;;47.63;17.87;;;0.40;99.90;;;;;;4993127;28;20201;-73
2023/01/26 09:20:03;;;;;;;51.40;18.83;;;0.40;99.90;;;;;;4994121;28;20601;-73
2023/01/26 09:22:30;;;;;;;48.00;19.17;;;0.40;99.90;;;;;;4993254;28;20212;-72
2023/01/26 09:24:59;;;;;;;49.57;19.87;;;0.40;99.90;;;;;;4993055;28;20212;-72
2023/01/26 09:27:26;;;;;;;48.73;19.23;;;0.50;99.90;;;;;;4993113;28;20686;-72
2023/01/26 09:29:54;;;;;;;46.23;18.33;;;0.50;99.90;;;;;;4992562;28;20217;-73
2023/01/26 09:32:20;;;;;;;44.43;18.50;;;0.50;99.90;;;;;;4993101;28;20205;-72
2023/01/26 09:34:47;;;;;;;49.93;20.13;;;0.50;99.90;;;;;;4993505;28;20239;-72
2023/01/26 09:37:15;;;;;;;51.97;21.80;;;0.50;99.90;;;;;;4993198;28;20236;-73
2023/01/26 09:39:43;;;;;;;48.40;19.17;;;0.60;99.90;;;;;;4992539;28;20240;-72
2023/01/26 09:42:38;;;;;;;49.60;19.73;;;0.70;99.90;;;;;;4992882;28;20793;-73
2023/01/26 09:45:23;;;;;;;50.83;20.17;;;0.70;99.90;;;;;;4993062;28;20237;-72
2023/01/26 09:48:04;;;;;;;48.23;20.17;;;0.70;99.90;;;;;;4992868;28;20229;-73
2023/01/26 09:50:36;;;;;;;49.87;19.23;;;0.70;99.90;;;;;;4991744;28;20209;-72
2023/01/26 09:53:06;;;;;;;44.40;18.50;;;0.70;99.90;;;;;;4992435;28;20205;-72
2023/01/26 09:55:34;;;;;;;43.63;19.30;;;0.70;99.90;;;;;;4992921;28;20221;-72
2023/01/26 09:58:05;;;;;;;47.50;17.13;;;0.70;99.90;;;;;;4992625;28;20232;-72
2023/01/26 10:00:39;;;;;;;48.13;19.33;;;0.70;99.90;;;;;;4992579;28;20328;-72
2023/01/26 10:03:17;;;;;;;45.47;18.43;;;0.70;99.90;;;;;;4992260;28;20205;-72
2023/01/26 10:05:48;;;;;;;49.87;20.03;;;0.70;99.90;;;;;;4993145;28;20215;-72
2023/01/26 10:08:18;;;;;;;46.43;18.93;;;0.80;99.90;;;;;;4993152;28;20248;-72
2023/01/26 10:10:50;;;;;;;47.30;19.20;;;0.70;99.90;;;;;;4991294;28;20288;-72
2023/01/26 10:13:19;;;;;;;46.23;19.20;;;0.80;99.90;;;;;;4990900;28;20611;-72
2023/01/26 10:15:49;;;;;;;45.67;19.17;;;0.70;99.90;;;;;;4992604;28;20236;-72
2023/01/26 10:18:19;;;;;;;47.27;18.40;;;0.80;99.90;;;;;;4992457;28;20230;-72
2023/01/26 10:20:51;;;;;;;52.53;21.53;;;0.80;99.90;;;;;;4992653;28;20674;-71
2023/01/26 10:23:23;;;;;;;48.07;20.83;;;0.90;99.90;;;;;;4990713;28;20264;-71
2023/01/26 10:25:51;;;;;;;47.67;19.23;;;0.80;99.90;;;;;;4989815;28;20197;-71
2023/01/26 10:28:23;;;;;;;43.70;19.07;;;0.90;99.90;;;;;;4992395;28;20227;-71
2023/01/26 10:30:51;;;;;;;49.73;18.83;;;0.90;99.90;;;;;;4991933;28;20209;-71
2023/01/26 10:33:20;;;;;;;52.13;20.40;;;0.90;99.90;;;;;;4991751;28;20213;-71
2023/01/26 10:35:47;;;;;;;44.30;18.60;;;1.00;99.90;;;;;;4992298;28;20711;-71
2023/01/26 10:38:42;;;;;;;45.97;18.73;;;1.00;99.90;;;;;;4991341;28;20196;-71
2023/01/26 10:41:24;;;;;;;48.43;19.80;;;1.00;99.90;;;;;;4985333;28;20229;-71
2023/01/26 10:43:55;;;;;;;44.27;19.43;;;1.00;99.90;;;;;;4992026;28;20307;-71
2023/01/26 10:46:29;;;;;;;46.33;19.83;;;1.00;99.90;;;;;;4992308;28;20629;-71
2023/01/26 10:48:57;;;;;;;47.37;18.97;;;1.00;99.90;;;;;;4992158;28;20204;-71
2023/01/26 10:51:28;;;;;;;50.37;22.90;;;1.00;99.90;;;;;;4991653;28;20255;-71
2023/01/26 10:54:15;;;;;;;47.90;19.00;;;1.00;99.90;;;;;;4991625;28;20212;-71
2023/01/26 10:56:46;;;;;;;44.23;18.87;;;1.00;99.90;;;;;;4991973;28;20659;-71
2023/01/26 10:59:25;;;;;;;46.33;21.53;;;1.10;99.90;;;;;;4992256;28;20296;-71
2023/01/26 11:01:53;;;;;;;49.60;19.63;;;1.00;99.90;;;;;;4991529;28;20640;-71
2023/01/26 11:04:20;;;;;;;47.23;20.20;;;1.10;99.90;;;;;;4992072;28;20548;-71
2023/01/26 11:06:47;;;;;;;48.33;24.17;;;1.10;99.90;;;;;;4991900;28;20236;-71
2023/01/26 11:09:19;;;;;;;46.53;22.20;;;1.10;99.90;;;;;;4992208;28;20295;-71
2023/01/26 11:11:57;;;;;;;43.97;19.37;;;1.20;99.90;;;;;;4991411;28;20237;-71
2023/01/26 11:14:25;;;;;;;44.70;19.23;;;1.20;99.90;;;;;;4992311;28;20538;-71
2023/01/26 11:17:00;;;;;;;50.10;22.27;;;1.30;99.90;;;;;;4992155;28;20206;-71
2023/01/26 11:19:50;;;;;;;50.87;24.60;;;1.30;99.90;;;;;;4995968;28;20575;-71
2023/01/26 11:22:22;;;;;;;45.93;23.03;;;1.30;99.90;;;;;;4994926;28;20275;-71
2023/01/26 11:24:57;;;;;;;43.10;18.93;;;1.30;99.90;;;;;;4995501;28;20288;-71
2023/01/26 11:27:36;;;;;;;42.70;18.73;;;1.30;99.90;;;;;;4995517;28;20706;-71
2023/01/26 11:30:26;;;;;;;39.87;18.37;;;1.20;99.90;;;;;;4994767;28;20232;-71
2023/01/26 11:33:00;;;;;;;44.63;22.50;;;1.20;99.90;;;;;;4994576;28;20209;-71
2023/01/26 11:35:36;;;;;;;43.37;18.27;;;1.20;99.90;;;;;;4995391;28;20296;-71
2023/01/26 11:38:22;;;;;;;43.60;18.47;;;1.30;99.90;;;;;;4993626;28;20220;-71
2023/01/26 11:40:58;;;;;;;37.77;16.77;;;1.20;99.90;;;;;;4994274;28;20233;-71
2023/01/26 11:43:52;;;;;;;43.27;18.33;;;1.20;99.90;;;;;;4995260;28;20566;-71
2023/01/26 11:46:37;;;;;;;37.50;16.57;;;1.30;99.90;;;;;;4995009;28;20300;-71
2023/01/26 11:49:16;;;;;;;49.60;21.23;;;1.00;99.90;;;;;;4995169;28;20296;-71
2023/01/26 11:51:59;;;;;;;45.40;23.27;;;1.10;99.90;;;;;;4994990;28;20224;-71
2023/01/26 11:54:39;;;;;;;39.20;17.40;;;1.10;99.90;;;;;;4994800;28;20284;-71
2023/01/26 11:57:18;;;;;;;35.60;14.93;;;1.00;99.90;;;;;;4995064;28;20314;-71
2023/01/26 11:59:49;;;;;;;43.83;17.90;;;1.00;99.90;;;;;;4995086;28;20659;-71
2023/01/26 12:02:27;;;;;;;44.70;20.50;;;1.10;99.90;;;;;;4994545;28;20753;-70
2023/01/26 12:04:56;;;;;;;46.47;22.50;;;1.10;99.90;;;;;;4995167;28;20640;-71
2023/01/26 12:07:29;;;;;;;58.53;24.30;;;1.10;99.90;;;;;;4994891;28;20205;-71
2023/01/26 12:09:56;;;;;;;39.97;17.67;;;1.10;99.90;;;;;;4994311;28;20359;-71
2023/01/26 12:12:30;;;;;;;44.87;18.60;;;1.10;99.90;;;;;;4993986;28;20259;-70
2023/01/26 12:15:02;;;;;;;42.43;17.60;;;1.10;99.90;;;;;;4994662;28;20220;-70
2023/01/26 12:17:38;;;;;;;47.40;17.43;;;1.20;99.90;;;;;;4993661;28;20252;-70
2023/01/26 12:20:19;;;;;;;45.87;19.00;;;1.20;99.90;;;;;;4994920;28;20229;-71
2023/01/26 12:22:52;;;;;;;38.70;16.03;;;1.10;99.90;;;;;;4993998;28;20613;-72
2023/01/26 12:25:28;;;;;;;35.37;16.30;;;1.10;99.90;;;;;;4994431;28;20271;-70
2023/01/26 12:28:02;;;;;;;41.00;15.77;;;1.10;99.90;;;;;;4994734;28;20208;-70
2023/01/26 12:30:36;;;;;;;42.23;17.03;;;1.10;99.90;;;;;;4992398;28;20208;-70
2023/01/26 12:33:05;;;;;;;38.67;15.67;;;1.10;99.90;;;;;;4994417;28;20686;-70
2023/01/26 12:35:50;;;;;;;37.30;15.13;;;1.10;99.90;;;;;;4974776;28;20201;-71
2023/01/26 12:38:20;;;;;;;41.97;16.33;;;1.10;99.90;;;;;;4981809;28;20209;-72
2023/01/26 12:40:59;;;;;;;39.30;16.33;;;1.00;99.90;;;;;;4994270;28;20854;-72
2023/01/26 12:43:40;;;;;;;36.00;15.33;;;1.00;99.90;;;;;;4993676;28;20229;-72
2023/01/26 12:46:09;;;;;;;43.30;16.90;;;1.00;99.90;;;;;;4992961;28;20205;-72
2023/01/26 12:48:44;;;;;;;35.80;17.50;;;1.00;99.90;;;;;;4993816;28;20217;-72
2023/01/26 12:51:18;;;;;;;38.57;16.23;;;1.10;99.90;;;;;;4993917;28;20247;-72
2023/01/26 12:53:54;;;;;;;39.23;16.70;;;1.10;99.90;;;;;;4992775;28;20565;-72
2023/01/26 12:56:25;;;;;;;38.83;15.03;;;1.00;99.90;;;;;;4994140;28;20213;-72
2023/01/26 12:58:55;;;;;;;37.03;15.33;;;1.00;99.90;;;;;;4992814;28;20615;-72
2023/01/26 13:01:24;;;;;;;38.40;16.37;;;1.00;99.90;;;;;;4994333;28;20213;-72
2023/01/26 13:03:55;;;;;;;38.03;16.40;;;1.00;99.90;;;;;;4993655;28;20678;-72
2023/01/26 13:06:24;;;;;;;40.23;17.90;;;1.00;99.90;;;;;;4993805;28;20229;-72
2023/01/26 13:09:00;;;;;;;54.27;21.33;;;1.00;99.90;;;;;;4993116;28;20236;-72
2023/01/26 13:11:57;;;;;;;57.43;25.37;;;1.00;99.90;;;;;;4991865;28;20209;-72
2023/01/26 13:14:30;;;;;;;37.83;15.77;;;1.00;99.90;;;;;;4934264;29;20219;-72
2023/01/26 13:16:58;;;;;;;36.30;15.90;;;1.00;99.90;;;;;;4981729;28;20627;-72
2023/01/26 13:19:37;;;;;;;33.87;15.03;;;1.10;99.90;;;;;;4993742;28;20310;-72
2023/01/26 13:22:08;;;;;;;33.57;14.07;;;1.10;99.90;;;;;;4993085;28;20299;-72
2023/01/26 13:24:47;;;;;;;32.03;14.10;;;1.10;99.90;;;;;;4993413;28;20240;-73
2023/01/26 13:27:32;;;;;;;34.40;14.60;;;1.10;99.90;;;;;;4993232;28;20587;-73
2023/01/26 13:30:00;;;;;;;31.67;13.87;;;1.10;99.90;;;;;;4991903;28;20706;-73
2023/01/26 13:33:11;;;;;;;35.00;13.93;;;1.10;99.90;;;;;;4992190;28;20245;-73
2023/01/26 13:35:40;;;;;;;33.03;13.80;;;1.10;99.90;;;;;;4980371;28;20280;-74